ブルネイ国際空港の過去48時間の天気

ブルネイ国際空港 (Brunei Airport)

現在時刻: 10/2 01:13 +08 (10/1 17:13 UTC) 以下の時間は現地時間です。

過去48時間のMETAR気象情報
時間 風向 風速(m/s) 視程 気温(℃) 湿度(%) 気圧(hPa) 天気現象
2 00:30 東南東 1 9000m 26 89 1009 弱い雨
2 00:00 南東 2 9000m 26 89 1010 弱い雨
1 23:30 南南東 2 9000m 26 94 1009 弱い雨
1 23:00 東南東 2 8000m 26 94 1010 弱いしゅう雨
1 22:30 南東 2 8000m 26 94 1009 弱いしゅう雨
1 22:00 南東 2 8000m 26 94 1009 弱いしゅう雨
1 21:30 3 7000m 27 89 1009 弱いしゅう雨
1 21:00 南南東 2 7000m 28 89 1008 弱いしゅう雨
1 20:30 南南西 3 10km以上 29 79 1006
1 20:00 南南西 2 10km以上 29 79 1006
1 19:30 西南西 4 10km以上 29 74 1006
1 19:00 西 4 10km以上 29 79 1006
1 18:30 西 3 10km以上 30 75 1006
1 18:00 西 3 10km以上 30 75 1006
1 17:30 西 5 10km以上 30 70 1005
1 17:00 西南西 6 10km以上 31 66 1005
1 16:30 西 7 10km以上 32 63 1004
1 16:00 西 6 10km以上 32 67 1005
1 15:30 西 7 10km以上 33 59 1005
1 15:00 西 6 10km以上 33 59 1005
1 14:30 西 6 10km以上 33 56 1005
1 14:00 西 6 10km以上 33 56 1006
1 13:30 西 5 10km以上 33 59 1006
1 13:00 西北西 5 10km以上 32 63 1007
1 12:30 西北西 6 10km以上 32 63 1007
1 12:00 西北西 4 10km以上 32 59 1007
1 11:30 3 10km以上 32 59 1008
1 11:00 南南西 4 10km以上 32 59 1008
1 10:30 南南東 1 10km以上 32 63 1009
1 10:00 南南西 2 10km以上 31 66 1009
1 09:30 南西 3 10km以上 31 70 1009
1 08:30 南南西 3 10km以上 29 79 1009
1 08:00 2 10km以上 28 84 1008
1 07:30 南南西 1 10km以上 27 84 1008
1 07:00 南南西 2 10km以上 27 89 1008
1 06:30 南西 2 10km以上 26 89 1008
1 06:00 1 10km以上 26 89 1008
1 05:30 南南東 2 10km以上 26 94 1007
1 05:00 南東 2 10km以上 26 94 1007
1 04:30 南西 2 10km以上 26 94 1007
1 04:00 南南西 2 10km以上 26 94 1007
1 03:30 2 10km以上 27 94 1006
1 03:00 南西 2 10km以上 27 94 1007
1 02:30 1 10km以上 28 84 1007
1 02:00 1 10km以上 28 84 1007
1 01:30 南南西 1 10km以上 28 84 1008
1 01:00 南南西 1 10km以上 28 84 1008
1 00:30 西南西 1 10km以上 28 84 1008
1 00:00 1 10km以上 28 84 1009
30 23:30 2 10km以上 29 79 1009
30 23:00 1 10km以上 29 79 1009
30 22:30 南東 1 10km以上 29 79 1009
30 22:00 南南東 1 10km以上 29 79 1009
30 21:30 1 10km以上 29 74 1009
30 21:00 南東 1 10km以上 29 74 1008
30 20:30 西 1 10km以上 29 74 1008
30 20:00 1 10km以上 29 74 1007
30 19:30 北北西 1 10km以上 29 74 1007
30 19:00 西北西 2 10km以上 29 74 1007
30 18:30 北西 2 10km以上 30 66 1006
30 18:00 北西 2 10km以上 31 62 1006
30 17:30 北北西 2 10km以上 31 62 1006
30 17:00 北西 4 10km以上 31 62 1005
30 16:30 北西 3 10km以上 32 59 1005
30 16:00 北北西 4 10km以上 32 59 1005
30 15:30 北北西 5 10km以上 32 59 1005
30 15:00 北北西 4 10km以上 33 56 1006
30 14:30 4 10km以上 32 63 1006
30 14:00 3 10km以上 33 56 1006
30 13:30 北西 3 10km以上 33 56 1007
30 13:00 北北西 4 10km以上 33 59 1007
30 12:30 西北西 2 10km以上 32 59 1008
30 12:00 2 10km以上 31 66 1008
30 11:30 北北西 3 10km以上 32 63 1008
30 11:00 西南西 1 10km以上 31 66 1009
30 10:30 西南西 1 10km以上 31 66 1009
30 10:00 南南東 3 10km以上 30 70 1009
30 09:30 南南西 3 10km以上 30 75 1009
30 09:00 南南西 3 10km以上 29 74 1010
30 08:30 2 10km以上 28 79 1009
30 08:00 3 10km以上 27 79 1009
30 07:30 2 10km以上 26 84 1009
30 07:00 南南東 1 10km以上 26 89 1009
30 06:30 南南東 1 10km以上 26 89 1009
30 06:00 南南西 2 10km以上 26 89 1008
30 05:30 南南西 3 10km以上 26 89 1008
30 05:00 南南東 1 10km以上 26 89 1008
30 04:30 南南東 1 10km以上 26 94 1008
30 04:00 南南東 1 10km以上 26 94 1008
30 03:30 1 10km以上 27 89 1008
30 03:00 南西 1 10km以上 27 89 1008
30 02:30 1 10km以上 27 89 1008
30 02:00 1 10km以上 27 89 1008
30 01:30 1 10km以上 27 89 1009
WBSB 011630Z 11002KT 9000 -RA FEW005 SCT014 BKN150 26/24 Q1009 NOSIG
WBSB 011600Z 13004KT 9000 -RA FEW005 SCT014 BKN150 26/24 Q1010 TEMPO 7000 SHRA TSRA
WBSB 011530Z 16003KT 9000 -RA SCT014 BKN150 26/25 Q1009 TEMPO 7000 SHRA TSRA
WBSB 011500Z 12003KT 8000 -SHRA SCT014 FEW015CB BKN140 26/25 Q1010 TEMPO 7000 SHRA TSRA
WBSB 011430Z 13003KT 8000 -SHRA SCT014 FEW015CB BKN140 26/25 Q1009 TEMPO 7000 SHRA TSRA
WBSB 011400Z 13004KT 8000 -SHRA SCT014 FEW015CB BKN140 26/25 Q1009 TEMPO 7000 SHRA TSRA
WBSB 011330Z 19005KT 7000 -SHRA SCT014 FEW015CB BKN140 27/25 Q1009 TEMPO 7000 SHRA TSRA
WBSB 011300Z 15004KT 7000 -SHRA SCT014 FEW015CB BKN140 28/26 Q1008 TEMPO 7000 SHRA TSRA
WBSB 011230Z 21005KT 9999 SCT015 FEW016CB BKN140 29/25 Q1006 TEMPO 7000 SHRA TSRA
WBSB 011200Z 21004KT 9999 SCT015 FEW016CB BKN140 29/25 Q1006 RETS TEMPO 7000 SHRA TSRA
WBSB 011130Z 24007KT 9999 FEW015 FEW016CB BKN140 29/24 Q1006 RETS TEMPO 7000 SHRA TSRA
WBSB 011100Z 26007KT 9999 TS SCT015 FEW016CB BKN140 29/25 Q1006 TEMPO 7000 SHRA TSRA
WBSB 011030Z 26006KT 9999 TS FEW015 FEW016CB SCT140 BKN280 30/25 Q1006 TEMPO 7000 SHRA TSRA
WBSB 011000Z 26006KT 9999 TS FEW015 FEW016CB BKN280 30/25 Q1006 TEMPO 7000 SHRA TSRA
WBSB 010930Z 26009KT 9999 TS FEW015 FEW016CB BKN280 30/24 Q1005 NOSIG
WBSB 010900Z 25012KT 9999 TS FEW015 FEW016CB BKN280 31/24 Q1005 NOSIG
WBSB 010830Z 27013KT 9999 TS FEW015 FEW016CB BKN300 32/24 Q1004 NOSIG
WBSB 010800Z 28012KT 9999 FEW015 FEW016CB BKN300 32/25 Q1005 NOSIG
WBSB 010730Z 28013KT 9999 FEW015 FEW016CB BKN300 33/24 Q1005 NOSIG
WBSB 010700Z 28011KT 9999 FEW016 FEW017CB SCT300 33/24 Q1005 NOSIG
WBSB 010630Z 26011KT 9999 FEW016 FEW017CB SCT300 33/23 Q1005 NOSIG
WBSB 010600Z 26011KT 9999 FEW016 SCT300 33/23 Q1006 NOSIG
WBSB 010530Z 26010KT 9999 SCT016 BKN300 33/24 Q1006 NOSIG
WBSB 010500Z 29010KT 9999 SCT016 BKN300 32/24 Q1007 NOSIG
WBSB 010430Z 29011KT 9999 SCT016 BKN300 32/24 Q1007 NOSIG
WBSB 010400Z 29008KT 9999 SCT015 BKN300 32/23 Q1007 NOSIG
WBSB 010330Z 18005KT 9999 SCT015 FEW016CB BKN300 32/23 Q1008 NOSIG
WBSB 010300Z 20008KT 9999 FEW015 FEW016CB BKN300 32/23 Q1008 NOSIG
WBSB 010230Z 16002KT 9999 FEW015 FEW016CB BKN300 32/24 Q1009 NOSIG
WBSB 010200Z 20004KT 9999 FEW015 FEW016CB BKN300 31/24 Q1009 NOSIG
WBSB 010130Z 22006KT 9999 FEW015 FEW016CB SCT300 31/25 Q1009 NOSIG
WBSB 010030Z 20005KT 9999 FEW015 FEW016CB BKN300 29/25 Q1009 NOSIG
WBSB 010000Z 19004KT 9999 FEW014 FEW015CB SCT140 BKN300 28/25 Q1008 NOSIG
WBSB 302330Z 20002KT 9999 FEW014 FEW015CB BKN140 27/24 Q1008 NOSIG
WBSB 302300Z 20004KT 9999 FEW014 FEW015CB BKN140 27/25 Q1008 NOSIG
WBSB 302230Z 23003KT 9999 FEW014 FEW015CB BKN140 26/24 Q1008 NOSIG
WBSB 302200Z 19001KT 9999 FEW014 SCT140 BKN280 26/24 Q1008 NOSIG
WBSB 302130Z 15003KT 9999 FEW014 SCT140 BKN280 26/25 Q1007 NOSIG
WBSB 302100Z 14003KT 9999 FEW014 SCT140 BKN280 26/25 Q1007 NOSIG
WBSB 302030Z 22004KT 9999 FEW014 SCT140 BKN280 26/25 Q1007 NOSIG
WBSB 302000Z 20004KT 9999 FEW014 SCT140 BKN280 26/25 Q1007 NOSIG
WBSB 301930Z 17003KT 9999 FEW014 SCT140 BKN280 27/26 Q1006 NOSIG
WBSB 301900Z 22004KT 9999 FEW015 SCT140 BKN280 27/26 Q1007 NOSIG
WBSB 301830Z 18002KT 9999 FEW015 SCT140 BKN280 28/25 Q1007 NOSIG
WBSB 301800Z 18001KT 9999 FEW015 SCT140 BKN280 28/25 Q1007 NOSIG
WBSB 301730Z 21002KT 9999 FEW015 BKN140 28/25 Q1008 NOSIG
WBSB 301700Z 21001KT 9999 FEW015 BKN140 28/25 Q1008 NOSIG
WBSB 301630Z 25001KT 9999 FEW015 BKN140 28/25 Q1008 NOSIG
WBSB 301600Z 19002KT 9999 FEW015 BKN140 28/25 Q1009 NOSIG
WBSB 301530Z 18004KT 9999 FEW015 BKN140 29/25 Q1009 NOSIG
WBSB 301500Z 17002KT 9999 FEW015 BKN140 29/25 Q1009 NOSIG
WBSB 301430Z 13001KT 9999 FEW015 BKN140 29/25 Q1009 NOSIG
WBSB 301400Z 16002KT 9999 FEW015 BKN140 29/25 Q1009 NOSIG
WBSB 301330Z 18001KT 9999 FEW015 BKN140 29/24 Q1009 NOSIG
WBSB 301300Z 13001KT 9999 FEW015 BKN140 29/24 Q1008 NOSIG
WBSB 301230Z 28002KT 9999 FEW015 BKN140 29/24 Q1008 NOSIG
WBSB 301200Z 35002KT 9999 FEW015 BKN140 29/24 Q1007 NOSIG
WBSB 301130Z 33001KT 9999 FEW016 SCT140 BKN300 29/24 Q1007 NOSIG
WBSB 301100Z 30003KT 9999 FEW016 FEW017CB BKN300 29/24 Q1007 NOSIG
WBSB 301030Z 32004KT 9999 FEW016 FEW017CB BKN300 30/23 Q1006 NOSIG
WBSB 301000Z 31004KT 9999 FEW016 FEW017CB BKN300 31/23 Q1006 NOSIG
WBSB 300930Z 34004KT 9999 FEW016 FEW017CB BKN300 31/23 Q1006 NOSIG
WBSB 300900Z 32007KT 9999 FEW016 FEW017CB BKN300 31/23 Q1005 NOSIG
WBSB 300830Z 31006KT 9999 FEW016 FEW017CB BKN300 32/23 Q1005 NOSIG
WBSB 300800Z 34007KT 9999 FEW016 FEW017CB BKN300 32/23 Q1005 NOSIG
WBSB 300730Z 34009KT 9999 FEW016 FEW017CB BKN300 32/23 Q1005 NOSIG
WBSB 300700Z 33007KT 9999 FEW016 FEW017CB BKN300 33/23 Q1006 NOSIG
WBSB 300630Z 35008KT 9999 FEW016 FEW017CB BKN300 32/24 Q1006 NOSIG
WBSB 300600Z 35005KT 9999 FEW016 FEW017CB BKN300 33/23 Q1006 NOSIG
WBSB 300530Z 32005KT 9999 SCT016 FEW017CB BKN300 33/23 Q1007 NOSIG
WBSB 300500Z 34007KT 9999 SCT016 FEW017CB BKN300 33/24 Q1007 NOSIG
WBSB 300430Z 30004KT 9999 SCT016 BKN300 32/23 Q1008 NOSIG
WBSB 300400Z 36004KT 9999 SCT016 BKN300 31/24 Q1008 NOSIG
WBSB 300330Z 34006KT 9999 SCT016 SCT300 32/24 Q1008 NOSIG
WBSB 300300Z 25002KT 9999 SCT016 SCT300 31/24 Q1009 NOSIG
WBSB 300230Z 25002KT 9999 FEW016 SCT300 31/24 Q1009 NOSIG
WBSB 300200Z 15006KT 9999 FEW016 SCT140 SCT300 30/24 Q1009 NOSIG
WBSB 300130Z 20005KT 9999 FEW016 SCT140 SCT300 30/25 Q1009 NOSIG
WBSB 300100Z 20005KT 9999 FEW015 SCT140 SCT300 29/24 Q1010 NOSIG
WBSB 300030Z 19003KT 9999 FEW015 SCT300 28/24 Q1009 NOSIG
WBSB 300000Z 19006KT 9999 FEW015 SCT300 27/23 Q1009 NOSIG
WBSB 292330Z 18003KT 9999 FEW015 SCT300 26/23 Q1009 NOSIG
WBSB 292300Z 15001KT 9999 FEW015 BKN300 26/24 Q1009 NOSIG
WBSB 292230Z 16002KT 9999 FEW015 BKN300 26/24 Q1009 NOSIG
WBSB 292200Z 20004KT 9999 FEW014 BKN300 26/24 Q1008 NOSIG
WBSB 292130Z 21005KT 9999 FEW014 BKN300 26/24 Q1008 NOSIG
WBSB 292100Z 15002KT 9999 FEW014 BKN300 26/24 Q1008 NOSIG
WBSB 292030Z 15001KT 9999 FEW014 BKN300 26/25 Q1008 NOSIG
WBSB 292000Z 15001KT 9999 FEW014 BKN300 26/25 Q1008 NOSIG
WBSB 291930Z 19001KT 9999 FEW014 SCT140 BKN300 27/25 Q1008 NOSIG
WBSB 291900Z 22002KT 9999 FEW014 SCT140 BKN300 27/25 Q1008 NOSIG
WBSB 291830Z 17001KT 9999 FEW014 SCT140 BKN270 27/25 Q1008 NOSIG
WBSB 291800Z 01001KT 9999 FEW014 SCT140 BKN270 27/25 Q1008 NOSIG
WBSB 291730Z 09001KT 9999 FEW014 SCT140 BKN270 27/25 Q1009 NOSIG